createdAt,value
2018-03-14T00:02:01.601Z,99.60
2018-03-14T00:04:29.128Z,99.60
2018-03-14T00:06:56.612Z,99.60
2018-03-14T00:09:24.114Z,99.50
2018-03-14T00:11:51.587Z,99.60
2018-03-14T00:14:19.150Z,99.50
2018-03-14T00:16:46.727Z,99.30
2018-03-14T00:19:14.300Z,99.50
2018-03-14T00:21:41.775Z,99.50
2018-03-14T00:24:09.551Z,99.30
2018-03-14T00:26:38.531Z,99.30
2018-03-14T00:29:05.999Z,99.30
2018-03-14T00:31:33.475Z,99.40
2018-03-14T00:34:00.982Z,99.30
2018-03-14T00:36:28.539Z,99.20
2018-03-14T00:38:55.999Z,99.20
2018-03-14T00:41:23.488Z,99.20
2018-03-14T00:43:50.946Z,99.20
2018-03-14T00:46:18.408Z,99.20
2018-03-14T00:48:45.879Z,99.10
2018-03-14T00:51:13.343Z,99.10
2018-03-14T00:53:40.934Z,99.20
2018-03-14T00:56:08.394Z,99.20
2018-03-14T00:58:35.870Z,99.00
2018-03-14T01:01:03.328Z,98.90
2018-03-14T01:03:30.804Z,98.90
2018-03-14T01:05:58.432Z,98.90
2018-03-14T01:08:25.931Z,99.10
2018-03-14T01:10:53.390Z,99.20
2018-03-14T01:13:20.869Z,99.20
2018-03-14T01:15:48.360Z,99.10
2018-03-14T01:18:15.830Z,99.10
2018-03-14T01:20:43.290Z,99.10
2018-03-14T01:23:10.776Z,99.20
2018-03-14T01:25:38.243Z,99.20
2018-03-14T01:28:05.708Z,98.90
2018-03-14T01:30:33.234Z,99.00
2018-03-14T01:33:00.711Z,98.80
2018-03-14T01:35:28.218Z,98.80
2018-03-14T01:37:55.686Z,98.80
2018-03-14T01:40:23.259Z,99.10
2018-03-14T01:42:50.719Z,99.10
2018-03-14T01:45:18.205Z,99.20
2018-03-14T01:47:45.771Z,99.40
2018-03-14T01:50:13.339Z,99.30
2018-03-14T01:52:40.835Z,99.20
2018-03-14T01:55:08.327Z,99.40
2018-03-14T01:57:36.558Z,99.50
2018-03-14T02:00:04.032Z,99.50
2018-03-14T02:02:31.498Z,99.50
2018-03-14T02:04:58.985Z,99.60
2018-03-14T02:07:26.448Z,99.60
2018-03-14T02:09:53.911Z,99.50
2018-03-14T02:12:21.387Z,99.50
2018-03-14T02:14:48.851Z,99.50
2018-03-14T02:17:16.326Z,99.70
2018-03-14T02:19:43.786Z,99.70
2018-03-14T02:22:11.263Z,99.60
2018-03-14T02:24:38.723Z,99.50
2018-03-14T02:27:06.196Z,99.60
2018-03-14T02:29:33.683Z,99.60
2018-03-14T02:32:01.251Z,99.50
2018-03-14T02:34:28.727Z,99.50
2018-03-14T02:37:02.140Z,99.40
2018-03-14T02:39:29.606Z,99.50
2018-03-14T02:41:57.084Z,99.40
2018-03-14T02:44:24.543Z,99.40
2018-03-14T02:46:52.026Z,99.20
2018-03-14T02:49:19.583Z,99.20
2018-03-14T02:51:47.056Z,99.00
2018-03-14T02:54:14.523Z,99.00
2018-03-14T02:56:41.972Z,99.10
2018-03-14T02:59:09.441Z,99.20
2018-03-14T03:01:36.935Z,99.30
2018-03-14T03:04:04.403Z,99.40
2018-03-14T03:06:31.882Z,99.50
2018-03-14T03:08:59.456Z,99.60
2018-03-14T03:11:26.911Z,99.70
2018-03-14T03:13:54.384Z,99.90
2018-03-14T03:16:21.841Z,99.80
2018-03-14T03:18:49.307Z,99.80
2018-03-14T03:21:16.795Z,99.90
2018-03-14T03:23:44.265Z,99.90
2018-03-14T03:26:11.719Z,99.90
2018-03-14T03:28:39.187Z,99.80
2018-03-14T03:31:06.653Z,99.90
2018-03-14T03:33:34.151Z,99.80
2018-03-14T03:36:01.626Z,99.60
2018-03-14T03:38:29.074Z,99.60
2018-03-14T03:40:56.547Z,99.60
2018-03-14T03:43:24.007Z,99.60
2018-03-14T03:45:51.479Z,99.60
2018-03-14T03:48:18.939Z,99.50
2018-03-14T03:50:46.429Z,99.40
2018-03-14T03:53:13.882Z,99.50
2018-03-14T03:55:41.371Z,99.60
2018-03-14T03:58:08.844Z,99.60
2018-03-14T04:00:36.425Z,99.60
2018-03-14T04:03:03.878Z,99.70
2018-03-14T04:05:31.350Z,99.70
2018-03-14T04:07:58.822Z,99.70
2018-03-14T04:10:26.391Z,99.80
2018-03-14T04:12:53.860Z,99.80
2018-03-14T04:15:21.339Z,99.70
2018-03-14T04:17:48.910Z,99.60
2018-03-14T04:20:16.367Z,99.50
2018-03-14T04:22:43.859Z,99.60
2018-03-14T04:25:11.307Z,99.50
2018-03-14T04:27:38.775Z,99.50
2018-03-14T04:30:06.232Z,99.40
2018-03-14T04:32:33.735Z,99.50
2018-03-14T04:35:01.195Z,99.40
2018-03-14T04:37:28.671Z,99.30
2018-03-14T04:39:56.123Z,99.20
2018-03-14T04:42:23.594Z,99.10
2018-03-14T04:44:51.052Z,99.40
2018-03-14T04:47:18.527Z,99.20
2018-03-14T04:49:45.988Z,99.10
2018-03-14T04:52:13.448Z,99.00
2018-03-14T04:54:40.911Z,99.20
2018-03-14T04:57:08.372Z,98.90
2018-03-14T04:59:35.844Z,98.90
2018-03-14T05:02:03.307Z,98.80
2018-03-14T05:04:31.519Z,98.90
2018-03-14T05:06:58.992Z,98.80
2018-03-14T05:09:26.491Z,99.00
2018-03-14T05:11:54.058Z,98.80
2018-03-14T05:14:21.515Z,98.80
2018-03-14T05:16:49.006Z,98.80
2018-03-14T05:19:16.584Z,98.60
2018-03-14T05:21:44.064Z,98.70
2018-03-14T05:24:11.621Z,98.90
2018-03-14T05:26:39.074Z,98.70
2018-03-14T05:29:06.543Z,98.80
2018-03-14T05:31:34.000Z,98.60
2018-03-14T05:34:01.560Z,98.70
2018-03-14T05:36:29.381Z,98.80
2018-03-14T05:38:56.838Z,99.40
2018-03-14T05:41:24.477Z,99.10
2018-03-14T05:43:51.991Z,98.50
2018-03-14T05:46:19.459Z,98.80
2018-03-14T05:48:46.927Z,98.90
2018-03-14T05:52:53.322Z,98.10
2018-03-14T05:55:20.798Z,98.20
2018-03-14T05:57:48.257Z,98.00
2018-03-14T06:00:15.715Z,98.20
2018-03-14T06:02:43.211Z,98.50
2018-03-14T06:05:10.668Z,98.40
2018-03-14T06:07:38.159Z,98.50
2018-03-14T06:10:05.611Z,98.60
2018-03-14T06:12:33.070Z,98.80
2018-03-14T06:15:00.546Z,98.90
2018-03-14T06:17:28.032Z,98.90
2018-03-14T06:19:55.507Z,98.80
2018-03-14T06:22:22.967Z,98.90
2018-03-14T06:24:50.454Z,98.80
2018-03-14T06:27:18.007Z,99.00
2018-03-14T06:29:45.473Z,98.90
2018-03-14T06:32:13.063Z,99.00
2018-03-14T06:34:40.531Z,99.20
2018-03-14T06:37:08.183Z,99.20
2018-03-14T06:39:35.619Z,99.30
2018-03-14T06:42:03.134Z,99.30
2018-03-14T06:44:30.761Z,99.60
2018-03-14T06:46:58.978Z,99.80
2018-03-14T06:49:26.455Z,99.80
2018-03-14T06:51:53.922Z,99.80
2018-03-14T06:54:21.388Z,99.90
2018-03-14T06:56:48.854Z,99.90
2018-03-14T06:59:28.267Z,99.70
2018-03-14T07:02:08.107Z,99.60
2018-03-14T07:04:42.822Z,99.60
2018-03-14T07:07:10.316Z,99.40
2018-03-14T07:09:37.770Z,99.40
2018-03-14T07:12:05.223Z,99.30
2018-03-14T07:14:32.751Z,99.20
2018-03-14T07:17:00.987Z,98.80
2018-03-14T07:19:28.446Z,98.80
2018-03-14T07:21:55.925Z,98.60
2018-03-14T07:24:23.379Z,98.60
2018-03-14T07:26:50.871Z,98.30
2018-03-14T07:29:18.665Z,98.00
2018-03-14T07:31:46.114Z,98.00
2018-03-14T07:34:13.571Z,98.10
2018-03-14T07:36:41.048Z,98.00
2018-03-14T07:39:08.508Z,97.80
2018-03-14T07:41:36.003Z,98.00
2018-03-14T07:44:03.477Z,97.50
2018-03-14T07:46:31.047Z,97.80
2018-03-14T07:48:58.506Z,97.70
2018-03-14T07:51:26.088Z,97.40
2018-03-14T07:53:53.606Z,97.60
2018-03-14T07:56:21.056Z,97.00
2018-03-14T07:58:49.323Z,97.50
2018-03-14T08:01:16.796Z,97.40
2018-03-14T08:03:44.256Z,96.70
2018-03-14T08:06:11.774Z,96.00
2018-03-14T08:08:39.993Z,95.20
2018-03-14T08:11:07.443Z,95.30
2018-03-14T08:13:35.063Z,95.20
2018-03-14T08:16:02.415Z,95.00
2018-03-14T08:18:29.871Z,94.80
2018-03-14T08:20:57.346Z,94.40
2018-03-14T08:23:24.803Z,94.30
2018-03-14T08:25:52.268Z,94.50
2018-03-14T08:28:19.767Z,94.20
2018-03-14T08:30:47.223Z,93.60
2018-03-14T08:33:14.707Z,93.20
2018-03-14T08:35:42.274Z,93.10
2018-03-14T08:38:09.751Z,93.10
2018-03-14T08:40:37.232Z,92.60
2018-03-14T08:43:04.686Z,92.50
2018-03-14T08:45:32.138Z,92.90
2018-03-14T08:47:59.615Z,93.30
2018-03-14T08:50:27.080Z,92.10
2018-03-14T08:52:54.571Z,91.90
2018-03-14T08:55:22.025Z,91.60
2018-03-14T08:57:49.478Z,90.40
2018-03-14T09:00:16.948Z,88.20
2018-03-14T09:02:44.443Z,88.00
2018-03-14T09:05:11.910Z,89.60
2018-03-14T09:07:39.389Z,91.40
2018-03-14T09:10:06.855Z,90.60
2018-03-14T09:12:34.331Z,91.80
2018-03-14T09:15:01.791Z,90.30
2018-03-14T09:17:29.247Z,90.50
2018-03-14T09:19:56.731Z,90.10
2018-03-14T09:22:24.207Z,90.60
2018-03-14T09:24:51.657Z,90.40
2018-03-14T09:27:19.123Z,90.30
2018-03-14T09:29:46.580Z,90.80
2018-03-14T09:32:14.068Z,89.60
2018-03-14T09:34:41.523Z,82.50
2018-03-14T09:37:09.024Z,80.10
2018-03-14T09:39:36.550Z,77.10
2018-03-14T09:42:04.063Z,74.30
2018-03-14T09:44:31.639Z,71.40
2018-03-14T09:46:59.119Z,69.70
2018-03-14T09:49:26.589Z,66.90
2018-03-14T09:51:54.063Z,65.60
2018-03-14T09:54:21.518Z,65.60
2018-03-14T09:56:49.043Z,62.90
2018-03-14T09:59:16.614Z,60.00
2018-03-14T10:01:44.072Z,58.10
2018-03-14T10:04:12.306Z,58.10
2018-03-14T10:06:39.770Z,57.90
2018-03-14T10:09:07.448Z,59.10
2018-03-14T10:11:34.880Z,56.50
2018-03-14T10:14:02.388Z,56.20
2018-03-14T10:16:30.699Z,54.90
2018-03-14T10:18:58.321Z,54.90
2018-03-14T10:21:25.799Z,56.00
2018-03-14T10:23:53.360Z,56.10
2018-03-14T10:26:20.879Z,54.20
2018-03-14T10:28:48.412Z,56.60
2018-03-14T10:31:15.919Z,52.50
2018-03-14T10:33:43.560Z,54.10
2018-03-14T10:36:11.119Z,53.70
2018-03-14T10:38:38.640Z,50.70
2018-03-14T10:41:06.266Z,52.00
2018-03-14T10:43:33.690Z,51.50
2018-03-14T10:46:01.247Z,51.10
2018-03-14T10:48:28.719Z,50.80
2018-03-14T10:50:56.194Z,52.90
2018-03-14T10:53:23.666Z,50.40
2018-03-14T10:55:51.244Z,51.50
2018-03-14T10:58:18.808Z,51.30
2018-03-14T11:00:52.081Z,49.50
2018-03-14T11:03:19.559Z,48.50
2018-03-14T11:05:47.027Z,46.40
2018-03-14T11:08:14.492Z,47.80
2018-03-14T11:10:41.992Z,46.30
2018-03-14T11:13:09.559Z,49.50
2018-03-14T11:15:37.114Z,45.50
2018-03-14T11:18:04.662Z,45.80
2018-03-14T11:20:32.079Z,47.80
2018-03-14T11:22:59.600Z,46.20
2018-03-14T11:25:27.055Z,45.70
2018-03-14T11:27:55.304Z,46.30
2018-03-14T11:30:22.780Z,46.30
2018-03-14T11:32:50.251Z,45.00
2018-03-14T11:35:18.023Z,44.40
2018-03-14T11:37:45.491Z,47.90
2018-03-14T11:40:12.965Z,48.50
2018-03-14T11:42:40.440Z,49.60
2018-03-14T11:45:08.011Z,46.10
2018-03-14T11:47:37.066Z,44.80
2018-03-14T11:50:04.534Z,44.80
2018-03-14T11:52:31.986Z,44.50
2018-03-14T11:55:00.231Z,44.00
2018-03-14T11:57:27.697Z,43.80
2018-03-14T11:59:55.175Z,46.10
2018-03-14T12:02:22.644Z,41.60
2018-03-14T12:04:50.116Z,42.60
2018-03-14T12:07:17.588Z,42.80
2018-03-14T12:09:45.043Z,42.70
2018-03-14T12:12:12.537Z,42.40
2018-03-14T12:14:40.007Z,42.70
2018-03-14T12:17:07.567Z,43.50
2018-03-14T12:19:35.142Z,43.70
2018-03-14T12:22:02.628Z,41.80
2018-03-14T12:24:30.928Z,43.90
2018-03-14T12:26:59.245Z,42.50
2018-03-14T12:29:26.824Z,42.30
2018-03-14T12:31:54.283Z,44.70
2018-03-14T12:34:21.738Z,42.10
2018-03-14T12:36:49.991Z,41.30
2018-03-14T12:39:17.550Z,41.30
2018-03-14T12:41:45.003Z,41.60
2018-03-14T12:44:12.480Z,41.10
2018-03-14T12:46:39.943Z,38.50
2018-03-14T12:49:07.415Z,38.40
2018-03-14T12:51:34.872Z,39.20
2018-03-14T12:54:02.424Z,39.20
2018-03-14T12:56:29.955Z,38.20
2018-03-14T12:58:57.432Z,39.20
2018-03-14T13:01:24.895Z,37.80
2018-03-14T13:03:52.383Z,38.70
2018-03-14T13:06:19.838Z,37.00
2018-03-14T13:08:47.412Z,36.70
2018-03-14T13:11:14.874Z,36.60
2018-03-14T13:13:42.369Z,39.40
2018-03-14T13:16:09.839Z,37.80
2018-03-14T13:18:37.294Z,36.80
2018-03-14T13:21:04.895Z,36.40
2018-03-14T13:23:32.443Z,35.10
2018-03-14T13:26:00.151Z,37.20
2018-03-14T13:28:27.687Z,35.20
2018-03-14T13:30:55.143Z,36.70
2018-03-14T13:33:22.608Z,34.70
2018-03-14T13:35:50.084Z,34.90
2018-03-14T13:38:17.539Z,33.20
2018-03-14T13:40:45.027Z,32.70
2018-03-14T13:43:12.483Z,31.60
2018-03-14T13:45:39.955Z,33.40
2018-03-14T13:48:07.439Z,34.60
2018-03-14T13:50:34.949Z,40.90
2018-03-14T13:53:03.223Z,47.80
2018-03-14T13:55:30.679Z,47.60
2018-03-14T13:57:59.635Z,51.20
2018-03-14T14:00:27.107Z,51.10
2018-03-14T14:02:54.571Z,51.80
2018-03-14T14:05:22.043Z,51.40
2018-03-14T14:07:49.511Z,50.20
2018-03-14T14:10:16.970Z,50.50
2018-03-14T14:12:44.435Z,51.70
2018-03-14T14:15:12.657Z,54.90
2018-03-14T14:17:40.206Z,54.90
2018-03-14T14:20:07.719Z,57.30
2018-03-14T14:22:35.194Z,55.40
2018-03-14T14:25:02.720Z,53.00
2018-03-14T14:27:30.144Z,50.80
2018-03-14T14:29:58.419Z,53.20
2018-03-14T14:32:25.879Z,53.20
2018-03-14T14:34:53.336Z,53.70
2018-03-14T14:37:20.811Z,55.30
2018-03-14T14:39:48.267Z,56.40
2018-03-14T14:42:15.768Z,55.60
2018-03-14T14:44:43.243Z,57.60
2018-03-14T14:47:10.699Z,54.20
2018-03-14T14:49:38.180Z,54.80
2018-03-14T14:52:05.636Z,53.30
2018-03-14T14:54:33.115Z,54.20
2018-03-14T14:57:00.576Z,55.90
2018-03-14T14:59:28.033Z,55.40
2018-03-14T15:01:55.495Z,55.10
2018-03-14T15:04:22.948Z,55.00
2018-03-14T15:06:50.423Z,56.50
2018-03-14T15:09:17.895Z,55.20
2018-03-14T15:11:45.460Z,57.50
2018-03-14T15:14:13.033Z,58.20
2018-03-14T15:16:40.484Z,57.10
2018-03-14T15:19:09.059Z,57.00
2018-03-14T15:21:36.524Z,57.00
2018-03-14T15:24:03.971Z,58.30
2018-03-14T15:26:31.452Z,58.80
2018-03-14T15:28:58.999Z,59.00
2018-03-14T15:31:26.463Z,59.20
2018-03-14T15:33:53.922Z,59.50
2018-03-14T15:36:21.435Z,58.50
2018-03-14T15:38:49.002Z,58.30
2018-03-14T15:41:16.460Z,58.20
2018-03-14T15:43:44.196Z,58.70
2018-03-14T15:46:11.656Z,58.70
2018-03-14T15:48:39.966Z,59.40
2018-03-14T15:51:07.428Z,59.20
2018-03-14T15:53:34.906Z,59.80
2018-03-14T15:56:02.425Z,59.00
2018-03-14T15:58:29.880Z,59.80
2018-03-14T16:00:57.397Z,59.50
2018-03-14T16:03:25.622Z,59.80
2018-03-14T16:05:53.119Z,59.20
2018-03-14T16:08:20.603Z,59.90
2018-03-14T16:10:48.160Z,60.60
2018-03-14T16:13:15.615Z,60.30
2018-03-14T16:15:43.087Z,60.70
2018-03-14T16:18:10.627Z,61.20
2018-03-14T16:20:38.145Z,61.70
2018-03-14T16:23:05.616Z,62.80
2018-03-14T16:25:33.063Z,62.80
2018-03-14T16:28:00.560Z,62.60
2018-03-14T16:30:28.027Z,63.30
2018-03-14T16:32:55.498Z,63.70
2018-03-14T16:35:22.955Z,64.40
2018-03-14T16:37:50.406Z,64.90
2018-03-14T16:40:17.887Z,64.00
2018-03-14T16:42:45.345Z,67.80
2018-03-14T16:45:12.843Z,64.50
2018-03-14T16:47:40.300Z,64.60
2018-03-14T16:50:07.760Z,64.30
2018-03-14T16:52:35.240Z,65.10
2018-03-14T16:55:02.717Z,66.40
2018-03-14T16:57:30.191Z,66.90
2018-03-14T16:59:57.649Z,66.70
2018-03-14T17:02:25.102Z,67.10
2018-03-14T17:04:52.576Z,67.50
2018-03-14T17:07:20.047Z,68.30
2018-03-14T17:09:47.539Z,68.60
2018-03-14T17:12:15.007Z,68.90
2018-03-14T17:14:42.755Z,69.30
2018-03-14T17:17:10.211Z,69.60
2018-03-14T17:19:37.671Z,69.60
2018-03-14T17:22:05.903Z,70.50
2018-03-14T17:24:33.395Z,70.30
2018-03-14T17:27:00.885Z,70.60
2018-03-14T17:29:29.200Z,71.30
2018-03-14T17:31:56.652Z,71.30
2018-03-14T17:34:24.138Z,71.70
2018-03-14T17:36:51.651Z,72.00
2018-03-14T17:39:19.124Z,73.10
2018-03-14T17:41:46.692Z,73.20
2018-03-14T17:44:14.148Z,73.40
2018-03-14T17:46:41.691Z,73.30
2018-03-14T17:49:09.171Z,73.70
2018-03-14T17:51:36.837Z,74.20
2018-03-14T17:54:04.351Z,74.40
2018-03-14T17:56:31.928Z,75.00
2018-03-14T17:58:59.402Z,75.30
2018-03-14T18:01:26.859Z,77.20
2018-03-14T18:03:54.328Z,76.70
2018-03-14T18:06:21.802Z,77.60
2018-03-14T18:08:49.257Z,79.10
2018-03-14T18:11:16.727Z,78.20
2018-03-14T18:13:44.181Z,78.60
2018-03-14T18:16:11.683Z,79.20
2018-03-14T18:18:39.161Z,79.60
2018-03-14T18:21:06.677Z,79.10
2018-03-14T18:23:34.891Z,78.70
2018-03-14T18:26:02.381Z,78.60
2018-03-14T18:28:29.841Z,78.60
2018-03-14T18:30:57.378Z,78.50
2018-03-14T18:33:24.879Z,79.00
2018-03-14T18:35:52.332Z,78.90
2018-03-14T18:38:19.786Z,78.90
2018-03-14T18:40:48.123Z,80.40
2018-03-14T18:43:15.579Z,80.40
2018-03-14T18:45:43.032Z,80.40
2018-03-14T18:48:10.504Z,80.20
2018-03-14T18:50:37.957Z,80.20
2018-03-14T18:53:09.538Z,80.00
2018-03-14T18:55:37.005Z,79.80
2018-03-14T18:58:04.459Z,80.00
2018-03-14T19:00:32.796Z,80.20
2018-03-14T19:03:00.251Z,80.20
2018-03-14T19:05:27.707Z,80.70
2018-03-14T19:07:55.177Z,80.80
2018-03-14T19:10:22.619Z,80.80
2018-03-14T19:12:50.859Z,82.30
2018-03-14T19:15:18.336Z,82.30
2018-03-14T19:17:45.807Z,81.00
2018-03-14T19:20:13.270Z,82.00
2018-03-14T19:22:40.794Z,82.00
2018-03-14T19:25:09.080Z,82.40
2018-03-14T19:27:37.328Z,82.60
2018-03-14T19:30:04.801Z,82.50
2018-03-14T19:32:32.263Z,82.80
2018-03-14T19:34:59.720Z,83.60
2018-03-14T19:37:27.200Z,83.50
2018-03-14T19:39:54.669Z,83.50
2018-03-14T19:42:22.155Z,83.90
2018-03-14T19:44:49.622Z,84.00
2018-03-14T19:47:17.070Z,84.40
2018-03-14T19:49:44.559Z,84.80
2018-03-14T19:52:12.040Z,85.10
2018-03-14T19:54:39.492Z,84.70
2018-03-14T19:57:07.274Z,85.30
2018-03-14T19:59:34.747Z,85.30
2018-03-14T20:02:02.225Z,85.40
2018-03-14T20:04:29.738Z,85.70
2018-03-14T20:06:57.199Z,85.70
2018-03-14T20:09:25.461Z,85.90
2018-03-14T20:11:53.013Z,85.90
2018-03-14T20:14:20.482Z,86.90
2018-03-14T20:16:47.939Z,86.40
2018-03-14T20:19:15.404Z,86.40
2018-03-14T20:21:42.895Z,87.30
2018-03-14T20:24:10.352Z,87.50
2018-03-14T20:26:37.800Z,85.90
2018-03-14T20:29:05.281Z,85.90
2018-03-14T20:31:32.751Z,86.20
2018-03-14T20:34:00.246Z,86.40
2018-03-14T20:36:27.699Z,86.40
2018-03-14T20:38:55.191Z,86.40
2018-03-14T20:41:22.656Z,86.30
2018-03-14T20:43:50.115Z,86.40
2018-03-14T20:46:17.591Z,86.50
2018-03-14T20:48:45.167Z,88.40
2018-03-14T20:51:12.630Z,88.30
2018-03-14T20:53:40.113Z,86.30
2018-03-14T20:56:07.651Z,86.50
2018-03-14T20:58:53.398Z,87.00
2018-03-14T21:01:20.906Z,86.90
2018-03-14T21:03:48.466Z,87.20
2018-03-14T21:06:16.777Z,87.50
2018-03-14T21:08:44.305Z,87.50
2018-03-14T21:11:13.315Z,87.60
2018-03-14T21:13:41.626Z,87.60
2018-03-14T21:16:09.882Z,88.00
2018-03-14T21:18:37.753Z,87.90
2018-03-14T21:21:05.264Z,88.00
2018-03-14T21:23:33.568Z,88.00
2018-03-14T21:26:01.068Z,88.00
2018-03-14T21:28:28.616Z,87.90
2018-03-14T21:30:56.095Z,87.80
2018-03-14T21:33:23.555Z,87.60
2018-03-14T21:35:51.031Z,87.60
2018-03-14T21:38:18.491Z,87.80
2018-03-14T21:40:45.969Z,87.90
2018-03-14T21:43:13.742Z,87.90
2018-03-14T21:45:41.205Z,88.10
2018-03-14T21:48:08.659Z,88.60
2018-03-14T21:50:37.184Z,87.90
2018-03-14T21:53:04.692Z,87.80
2018-03-14T21:55:38.194Z,87.80
2018-03-14T21:58:05.783Z,87.90
2018-03-14T22:00:33.341Z,87.90
2018-03-14T22:03:00.827Z,87.90
2018-03-14T22:05:28.319Z,87.90
2018-03-14T22:07:56.567Z,87.70
2018-03-14T22:10:24.048Z,87.60
2018-03-14T22:12:51.504Z,87.70
2018-03-14T22:15:19.062Z,87.80
2018-03-14T22:17:46.494Z,87.50
2018-03-14T22:20:14.700Z,87.80
2018-03-14T22:22:42.152Z,87.80
2018-03-14T22:25:09.632Z,87.90
2018-03-14T22:27:37.087Z,87.60
2018-03-14T22:30:04.547Z,87.60
2018-03-14T22:32:32.779Z,87.70
2018-03-14T22:35:00.271Z,87.60
2018-03-14T22:37:27.725Z,87.80
2018-03-14T22:39:55.210Z,87.80
2018-03-14T22:42:22.680Z,87.80
2018-03-14T22:44:50.147Z,87.80
2018-03-14T22:47:17.607Z,87.70
2018-03-14T22:49:45.066Z,87.80
2018-03-14T22:52:12.603Z,88.10
2018-03-14T22:54:40.840Z,88.10
2018-03-14T22:57:08.301Z,88.00
2018-03-14T22:59:35.772Z,87.90
2018-03-14T23:02:03.234Z,88.10
2018-03-14T23:04:30.707Z,88.00
2018-03-14T23:06:58.176Z,87.80
2018-03-14T23:09:25.627Z,87.80
2018-03-14T23:11:53.219Z,88.00
2018-03-14T23:14:20.684Z,87.90
2018-03-14T23:16:48.159Z,88.00
2018-03-14T23:19:15.623Z,88.00
2018-03-14T23:21:43.081Z,88.30
2018-03-14T23:24:10.554Z,88.30
2018-03-14T23:26:38.113Z,88.50
2018-03-14T23:29:06.347Z,88.30
2018-03-14T23:31:33.803Z,88.30
2018-03-14T23:34:01.342Z,88.40
2018-03-14T23:36:28.807Z,88.90
2018-03-14T23:38:56.267Z,89.10
2018-03-14T23:41:24.522Z,89.10
2018-03-14T23:43:51.990Z,88.90
2018-03-14T23:46:19.555Z,88.90
2018-03-14T23:48:47.026Z,89.10
2018-03-14T23:51:14.487Z,89.10
2018-03-14T23:53:41.967Z,89.20
2018-03-14T23:56:09.419Z,89.40
2018-03-14T23:58:36.875Z,89.40
